sensor_id;sensor_type;location;lat;lon;timestamp;temperature;humidity
10175;DHT22;18221;38.704;0.152;2023-04-03T00:03:09;14.70;99.90
10175;DHT22;18221;38.704;0.152;2023-04-03T00:05:38;14.70;99.90
10175;DHT22;18221;38.704;0.152;2023-04-03T00:08:06;14.70;99.90
10175;DHT22;18221;38.704;0.152;2023-04-03T00:10:36;14.70;99.90
10175;DHT22;18221;38.704;0.152;2023-04-03T00:13:06;14.70;99.90
10175;DHT22;18221;38.704;0.152;2023-04-03T00:15:36;14.70;99.90
10175;DHT22;18221;38.704;0.152;2023-04-03T00:18:06;14.60;99.90
10175;DHT22;18221;38.704;0.152;2023-04-03T00:20:36;14.60;99.90
10175;DHT22;18221;38.704;0.152;2023-04-03T00:23:04;14.60;99.90
10175;DHT22;18221;38.704;0.152;2023-04-03T00:25:33;14.50;99.90
10175;DHT22;18221;38.704;0.152;2023-04-03T00:28:03;14.50;99.90
10175;DHT22;18221;38.704;0.152;2023-04-03T00:30:32;14.50;99.90
10175;DHT22;18221;38.704;0.152;2023-04-03T00:33:01;14.50;99.90
10175;DHT22;18221;38.704;0.152;2023-04-03T00:35:30;14.40;99.90
10175;DHT22;18221;38.704;0.152;2023-04-03T00:38:00;14.40;99.90
10175;DHT22;18221;38.704;0.152;2023-04-03T00:40:33;14.40;99.90
10175;DHT22;18221;38.704;0.152;2023-04-03T00:43:11;14.40;99.90
10175;DHT22;18221;38.704;0.152;2023-04-03T00:45:42;14.30;99.90
10175;DHT22;18221;38.704;0.152;2023-04-03T00:48:15;14.30;99.90
10175;DHT22;18221;38.704;0.152;2023-04-03T00:50:47;14.30;99.90
10175;DHT22;18221;38.704;0.152;2023-04-03T00:53:21;14.30;99.90
10175;DHT22;18221;38.704;0.152;2023-04-03T00:55:54;14.30;99.90
10175;DHT22;18221;38.704;0.152;2023-04-03T00:58:29;14.20;99.90
10175;DHT22;18221;38.704;0.152;2023-04-03T01:01:05;14.20;99.90
10175;DHT22;18221;38.704;0.152;2023-04-03T01:03:38;14.20;99.90
10175;DHT22;18221;38.704;0.152;2023-04-03T01:06:07;14.20;99.90
10175;DHT22;18221;38.704;0.152;2023-04-03T01:08:38;14.10;99.90
10175;DHT22;18221;38.704;0.152;2023-04-03T01:11:07;14.10;99.90
10175;DHT22;18221;38.704;0.152;2023-04-03T01:13:35;14.20;99.90
10175;DHT22;18221;38.704;0.152;2023-04-03T01:16:04;14.10;99.90
10175;DHT22;18221;38.704;0.152;2023-04-03T01:18:35;14.20;99.90
10175;DHT22;18221;38.704;0.152;2023-04-03T01:24:35;14.10;99.90
10175;DHT22;18221;38.704;0.152;2023-04-03T01:27:07;14.10;99.90
10175;DHT22;18221;38.704;0.152;2023-04-03T01:29:38;14.10;99.90
10175;DHT22;18221;38.704;0.152;2023-04-03T01:32:09;14.10;99.90
10175;DHT22;18221;38.704;0.152;2023-04-03T01:34:37;14.10;99.90
10175;DHT22;18221;38.704;0.152;2023-04-03T01:37:06;14.10;99.90
10175;DHT22;18221;38.704;0.152;2023-04-03T01:39:34;14.10;99.90
10175;DHT22;18221;38.704;0.152;2023-04-03T01:42:03;14.00;99.90
10175;DHT22;18221;38.704;0.152;2023-04-03T01:44:32;14.00;99.90
10175;DHT22;18221;38.704;0.152;2023-04-03T01:47:02;14.00;99.90
10175;DHT22;18221;38.704;0.152;2023-04-03T01:49:35;13.80;99.90
10175;DHT22;18221;38.704;0.152;2023-04-03T01:52:04;13.80;99.90
10175;DHT22;18221;38.704;0.152;2023-04-03T01:54:33;13.80;99.90
10175;DHT22;18221;38.704;0.152;2023-04-03T01:57:01;13.80;99.90
10175;DHT22;18221;38.704;0.152;2023-04-03T01:59:33;13.80;99.90
10175;DHT22;18221;38.704;0.152;2023-04-03T02:02:02;13.70;99.90
10175;DHT22;18221;38.704;0.152;2023-04-03T02:04:30;13.70;99.90
10175;DHT22;18221;38.704;0.152;2023-04-03T02:07:02;13.70;99.90
10175;DHT22;18221;38.704;0.152;2023-04-03T02:09:32;13.70;99.90
10175;DHT22;18221;38.704;0.152;2023-04-03T02:12:01;13.60;99.90
10175;DHT22;18221;38.704;0.152;2023-04-03T02:14:30;13.60;99.90
10175;DHT22;18221;38.704;0.152;2023-04-03T02:17:00;13.60;99.90
10175;DHT22;18221;38.704;0.152;2023-04-03T02:19:32;13.50;99.90
10175;DHT22;18221;38.704;0.152;2023-04-03T02:22:03;13.50;99.90
10175;DHT22;18221;38.704;0.152;2023-04-03T02:24:32;13.40;99.90
10175;DHT22;18221;38.704;0.152;2023-04-03T02:27:01;13.50;99.90
10175;DHT22;18221;38.704;0.152;2023-04-03T02:29:30;13.40;99.90
10175;DHT22;18221;38.704;0.152;2023-04-03T02:31:59;13.40;99.90
10175;DHT22;18221;38.704;0.152;2023-04-03T02:34:27;13.40;99.90
10175;DHT22;18221;38.704;0.152;2023-04-03T02:36:56;13.40;99.90
10175;DHT22;18221;38.704;0.152;2023-04-03T02:39:26;13.30;99.90
10175;DHT22;18221;38.704;0.152;2023-04-03T02:41:55;13.30;99.90
10175;DHT22;18221;38.704;0.152;2023-04-03T02:44:24;13.30;99.90
10175;DHT22;18221;38.704;0.152;2023-04-03T02:46:55;13.30;99.90
10175;DHT22;18221;38.704;0.152;2023-04-03T02:49:24;13.30;99.90
10175;DHT22;18221;38.704;0.152;2023-04-03T02:51:53;13.20;99.90
10175;DHT22;18221;38.704;0.152;2023-04-03T02:54:22;13.20;99.90
10175;DHT22;18221;38.704;0.152;2023-04-03T02:56:56;13.10;99.90
10175;DHT22;18221;38.704;0.152;2023-04-03T02:59:27;13.10;99.90
10175;DHT22;18221;38.704;0.152;2023-04-03T03:01:58;13.10;99.90
10175;DHT22;18221;38.704;0.152;2023-04-03T03:04:26;13.10;99.90
10175;DHT22;18221;38.704;0.152;2023-04-03T03:06:55;13.10;99.90
10175;DHT22;18221;38.704;0.152;2023-04-03T03:09:24;13.10;99.90
10175;DHT22;18221;38.704;0.152;2023-04-03T03:11:52;13.10;99.90
10175;DHT22;18221;38.704;0.152;2023-04-03T03:14:23;13.00;99.90
10175;DHT22;18221;38.704;0.152;2023-04-03T03:16:51;13.00;99.90
10175;DHT22;18221;38.704;0.152;2023-04-03T03:19:19;12.90;99.90
10175;DHT22;18221;38.704;0.152;2023-04-03T03:21:48;12.90;99.90
10175;DHT22;18221;38.704;0.152;2023-04-03T03:24:17;12.90;99.90
10175;DHT22;18221;38.704;0.152;2023-04-03T03:26:45;12.90;99.90
10175;DHT22;18221;38.704;0.152;2023-04-03T03:29:15;12.90;99.90
10175;DHT22;18221;38.704;0.152;2023-04-03T03:31:47;12.90;99.90
10175;DHT22;18221;38.704;0.152;2023-04-03T03:34:15;12.90;99.90
10175;DHT22;18221;38.704;0.152;2023-04-03T03:36:44;13.00;99.90
10175;DHT22;18221;38.704;0.152;2023-04-03T03:39:12;13.00;99.90
10175;DHT22;18221;38.704;0.152;2023-04-03T03:41:41;13.00;99.90
10175;DHT22;18221;38.704;0.152;2023-04-03T03:44:09;12.90;99.90
10175;DHT22;18221;38.704;0.152;2023-04-03T03:46:39;12.90;99.90
10175;DHT22;18221;38.704;0.152;2023-04-03T03:49:08;12.80;99.90
10175;DHT22;18221;38.704;0.152;2023-04-03T03:51:37;12.80;99.90
10175;DHT22;18221;38.704;0.152;2023-04-03T03:54:06;12.80;99.90
10175;DHT22;18221;38.704;0.152;2023-04-03T03:56:35;12.80;99.90
10175;DHT22;18221;38.704;0.152;2023-04-03T03:59:04;12.80;99.90
10175;DHT22;18221;38.704;0.152;2023-04-03T04:01:32;12.80;99.90
10175;DHT22;18221;38.704;0.152;2023-04-03T04:04:02;12.80;99.90
10175;DHT22;18221;38.704;0.152;2023-04-03T04:06:31;12.80;99.90
10175;DHT22;18221;38.704;0.152;2023-04-03T04:08:59;12.70;99.90
10175;DHT22;18221;38.704;0.152;2023-04-03T04:11:28;12.70;99.90
10175;DHT22;18221;38.704;0.152;2023-04-03T04:13:56;12.70;99.90
10175;DHT22;18221;38.704;0.152;2023-04-03T04:16:25;12.70;99.90
10175;DHT22;18221;38.704;0.152;2023-04-03T04:18:53;12.70;99.90
10175;DHT22;18221;38.704;0.152;2023-04-03T04:21:23;12.60;99.90
10175;DHT22;18221;38.704;0.152;2023-04-03T04:23:52;12.60;99.90
10175;DHT22;18221;38.704;0.152;2023-04-03T04:26:21;12.60;99.90
10175;DHT22;18221;38.704;0.152;2023-04-03T04:28:50;12.60;99.90
10175;DHT22;18221;38.704;0.152;2023-04-03T04:31:18;12.50;99.90
10175;DHT22;18221;38.704;0.152;2023-04-03T04:33:47;12.50;99.90
10175;DHT22;18221;38.704;0.152;2023-04-03T04:36:16;12.40;99.90
10175;DHT22;18221;38.704;0.152;2023-04-03T04:38:46;12.40;99.90
10175;DHT22;18221;38.704;0.152;2023-04-03T04:41:14;12.40;99.90
10175;DHT22;18221;38.704;0.152;2023-04-03T04:43:43;12.40;99.90
10175;DHT22;18221;38.704;0.152;2023-04-03T04:46:12;12.40;99.90
10175;DHT22;18221;38.704;0.152;2023-04-03T04:48:40;12.40;99.90
10175;DHT22;18221;38.704;0.152;2023-04-03T04:51:10;12.40;99.90
10175;DHT22;18221;38.704;0.152;2023-04-03T04:53:39;12.40;99.90
10175;DHT22;18221;38.704;0.152;2023-04-03T04:56:09;12.40;99.90
10175;DHT22;18221;38.704;0.152;2023-04-03T04:58:38;12.30;99.90
10175;DHT22;18221;38.704;0.152;2023-04-03T05:01:08;12.30;99.90
10175;DHT22;18221;38.704;0.152;2023-04-03T05:03:37;12.40;99.90
10175;DHT22;18221;38.704;0.152;2023-04-03T05:06:06;12.30;99.90
10175;DHT22;18221;38.704;0.152;2023-04-03T05:08:34;12.40;99.90
10175;DHT22;18221;38.704;0.152;2023-04-03T05:11:02;12.30;99.90
10175;DHT22;18221;38.704;0.152;2023-04-03T05:13:33;12.30;99.90
10175;DHT22;18221;38.704;0.152;2023-04-03T05:16:01;12.30;99.90
10175;DHT22;18221;38.704;0.152;2023-04-03T05:18:30;12.20;99.90
10175;DHT22;18221;38.704;0.152;2023-04-03T05:20:58;12.30;99.90
10175;DHT22;18221;38.704;0.152;2023-04-03T05:23:26;12.20;99.90
10175;DHT22;18221;38.704;0.152;2023-04-03T05:25:55;12.30;99.90
10175;DHT22;18221;38.704;0.152;2023-04-03T05:28:23;12.30;99.90
10175;DHT22;18221;38.704;0.152;2023-04-03T05:30:57;12.30;99.90
10175;DHT22;18221;38.704;0.152;2023-04-03T05:33:26;12.30;99.90
10175;DHT22;18221;38.704;0.152;2023-04-03T05:35:55;12.30;99.90
10175;DHT22;18221;38.704;0.152;2023-04-03T05:38:23;12.20;99.90
10175;DHT22;18221;38.704;0.152;2023-04-03T05:40:51;12.20;99.90
10175;DHT22;18221;38.704;0.152;2023-04-03T05:43:19;12.20;99.90
10175;DHT22;18221;38.704;0.152;2023-04-03T05:45:48;12.20;99.90
10175;DHT22;18221;38.704;0.152;2023-04-03T05:48:18;12.20;99.90
10175;DHT22;18221;38.704;0.152;2023-04-03T05:50:46;12.20;99.90
10175;DHT22;18221;38.704;0.152;2023-04-03T05:53:19;12.10;99.90
10175;DHT22;18221;38.704;0.152;2023-04-03T05:55:51;12.10;99.90
10175;DHT22;18221;38.704;0.152;2023-04-03T05:58:20;12.10;99.90
10175;DHT22;18221;38.704;0.152;2023-04-03T06:00:48;12.10;99.90
10175;DHT22;18221;38.704;0.152;2023-04-03T06:03:18;12.10;99.90
10175;DHT22;18221;38.704;0.152;2023-04-03T06:05:46;12.00;99.90
10175;DHT22;18221;38.704;0.152;2023-04-03T06:08:15;12.10;99.90
10175;DHT22;18221;38.704;0.152;2023-04-03T06:10:43;12.00;99.90
10175;DHT22;18221;38.704;0.152;2023-04-03T06:13:11;12.00;99.90
10175;DHT22;18221;38.704;0.152;2023-04-03T06:15:42;12.00;99.90
10175;DHT22;18221;38.704;0.152;2023-04-03T06:18:11;12.00;99.90
10175;DHT22;18221;38.704;0.152;2023-04-03T06:20:41;12.00;99.90
10175;DHT22;18221;38.704;0.152;2023-04-03T06:23:10;12.00;99.90
10175;DHT22;18221;38.704;0.152;2023-04-03T06:25:39;11.90;99.90
10175;DHT22;18221;38.704;0.152;2023-04-03T06:28:09;12.00;99.90
10175;DHT22;18221;38.704;0.152;2023-04-03T06:30:38;11.90;99.90
10175;DHT22;18221;38.704;0.152;2023-04-03T06:33:06;11.90;99.90
10175;DHT22;18221;38.704;0.152;2023-04-03T06:35:35;11.90;99.90
10175;DHT22;18221;38.704;0.152;2023-04-03T06:38:06;11.90;99.90
10175;DHT22;18221;38.704;0.152;2023-04-03T06:40:36;11.90;99.90
10175;DHT22;18221;38.704;0.152;2023-04-03T06:43:05;12.00;99.90
10175;DHT22;18221;38.704;0.152;2023-04-03T06:45:33;12.00;99.90
10175;DHT22;18221;38.704;0.152;2023-04-03T06:48:02;12.00;99.90
10175;DHT22;18221;38.704;0.152;2023-04-03T06:50:31;12.00;99.90
10175;DHT22;18221;38.704;0.152;2023-04-03T06:53:00;12.00;99.90
10175;DHT22;18221;38.704;0.152;2023-04-03T06:55:31;12.10;99.90
10175;DHT22;18221;38.704;0.152;2023-04-03T06:57:59;12.10;99.90
10175;DHT22;18221;38.704;0.152;2023-04-03T07:00:28;12.20;99.90
10175;DHT22;18221;38.704;0.152;2023-04-03T07:02:58;12.20;99.90
10175;DHT22;18221;38.704;0.152;2023-04-03T07:05:26;12.20;99.90
10175;DHT22;18221;38.704;0.152;2023-04-03T07:07:55;12.30;99.90
10175;DHT22;18221;38.704;0.152;2023-04-03T07:10:24;12.30;99.90
10175;DHT22;18221;38.704;0.152;2023-04-03T07:12:54;12.40;99.90
10175;DHT22;18221;38.704;0.152;2023-04-03T07:15:23;12.40;99.90
10175;DHT22;18221;38.704;0.152;2023-04-03T07:17:52;12.50;99.90
10175;DHT22;18221;38.704;0.152;2023-04-03T07:20:21;12.90;99.90
10175;DHT22;18221;38.704;0.152;2023-04-03T07:22:53;12.80;99.90
10175;DHT22;18221;38.704;0.152;2023-04-03T07:25:22;12.90;99.90
10175;DHT22;18221;38.704;0.152;2023-04-03T07:27:53;13.00;99.90
10175;DHT22;18221;38.704;0.152;2023-04-03T07:30:22;13.10;99.90
10175;DHT22;18221;38.704;0.152;2023-04-03T07:32:51;13.10;99.90
10175;DHT22;18221;38.704;0.152;2023-04-03T07:35:20;13.10;99.90
10175;DHT22;18221;38.704;0.152;2023-04-03T07:37:48;13.00;99.90
10175;DHT22;18221;38.704;0.152;2023-04-03T07:40:17;13.00;99.90
10175;DHT22;18221;38.704;0.152;2023-04-03T07:42:46;12.90;99.90
10175;DHT22;18221;38.704;0.152;2023-04-03T07:45:16;12.90;99.90
10175;DHT22;18221;38.704;0.152;2023-04-03T07:47:45;13.00;99.90
10175;DHT22;18221;38.704;0.152;2023-04-03T07:50:14;13.00;99.90
10175;DHT22;18221;38.704;0.152;2023-04-03T07:52:44;13.00;99.90
10175;DHT22;18221;38.704;0.152;2023-04-03T07:55:13;13.10;99.90
10175;DHT22;18221;38.704;0.152;2023-04-03T07:57:42;13.20;99.90
10175;DHT22;18221;38.704;0.152;2023-04-03T08:00:12;13.20;99.90
10175;DHT22;18221;38.704;0.152;2023-04-03T08:02:45;13.30;99.90
10175;DHT22;18221;38.704;0.152;2023-04-03T08:05:17;13.30;99.90
10175;DHT22;18221;38.704;0.152;2023-04-03T08:07:47;13.40;99.90
10175;DHT22;18221;38.704;0.152;2023-04-03T08:10:16;13.30;99.90
10175;DHT22;18221;38.704;0.152;2023-04-03T08:12:46;13.40;99.90
10175;DHT22;18221;38.704;0.152;2023-04-03T08:15:18;13.40;99.90
10175;DHT22;18221;38.704;0.152;2023-04-03T08:17:51;13.40;99.90
10175;DHT22;18221;38.704;0.152;2023-04-03T08:20:21;13.50;99.90
10175;DHT22;18221;38.704;0.152;2023-04-03T08:22:49;13.60;99.90
10175;DHT22;18221;38.704;0.152;2023-04-03T08:25:18;13.60;99.90
10175;DHT22;18221;38.704;0.152;2023-04-03T08:27:46;13.60;99.90
10175;DHT22;18221;38.704;0.152;2023-04-03T08:30:15;13.70;99.90
10175;DHT22;18221;38.704;0.152;2023-04-03T08:32:44;13.70;99.90
10175;DHT22;18221;38.704;0.152;2023-04-03T08:35:13;13.80;99.90
10175;DHT22;18221;38.704;0.152;2023-04-03T08:37:42;13.70;99.90
10175;DHT22;18221;38.704;0.152;2023-04-03T08:40:14;13.70;99.90
10175;DHT22;18221;38.704;0.152;2023-04-03T08:42:54;13.80;99.90
10175;DHT22;18221;38.704;0.152;2023-04-03T08:45:41;13.80;99.90
10175;DHT22;18221;38.704;0.152;2023-04-03T08:48:16;13.80;99.90
10175;DHT22;18221;38.704;0.152;2023-04-03T08:50:53;13.80;99.90
10175;DHT22;18221;38.704;0.152;2023-04-03T08:53:26;13.90;99.90
10175;DHT22;18221;38.704;0.152;2023-04-03T08:56:04;13.90;99.90
10175;DHT22;18221;38.704;0.152;2023-04-03T08:58:42;13.90;99.90
10175;DHT22;18221;38.704;0.152;2023-04-03T09:01:20;14.00;99.90
10175;DHT22;18221;38.704;0.152;2023-04-03T09:03:54;14.00;99.90
10175;DHT22;18221;38.704;0.152;2023-04-03T09:06:27;14.10;99.90
10175;DHT22;18221;38.704;0.152;2023-04-03T09:09:10;14.20;99.90
10175;DHT22;18221;38.704;0.152;2023-04-03T09:11:50;14.20;99.90
10175;DHT22;18221;38.704;0.152;2023-04-03T09:14:32;14.20;99.90
10175;DHT22;18221;38.704;0.152;2023-04-03T09:17:12;14.20;99.90
10175;DHT22;18221;38.704;0.152;2023-04-03T09:19:54;14.90;99.90
10175;DHT22;18221;38.704;0.152;2023-04-03T09:22:32;14.30;99.90
10175;DHT22;18221;38.704;0.152;2023-04-03T09:25:10;14.30;99.90
10175;DHT22;18221;38.704;0.152;2023-04-03T09:27:43;14.40;99.90
10175;DHT22;18221;38.704;0.152;2023-04-03T09:30:14;14.40;99.90
10175;DHT22;18221;38.704;0.152;2023-04-03T09:32:45;14.50;99.90
10175;DHT22;18221;38.704;0.152;2023-04-03T09:35:19;14.50;99.90
10175;DHT22;18221;38.704;0.152;2023-04-03T09:37:53;14.60;99.90
10175;DHT22;18221;38.704;0.152;2023-04-03T09:40:31;14.60;99.90
10175;DHT22;18221;38.704;0.152;2023-04-03T09:43:25;14.70;99.90
10175;DHT22;18221;38.704;0.152;2023-04-03T09:46:13;14.80;99.90
10175;DHT22;18221;38.704;0.152;2023-04-03T09:48:51;14.80;99.90
10175;DHT22;18221;38.704;0.152;2023-04-03T09:51:26;14.80;99.90
10175;DHT22;18221;38.704;0.152;2023-04-03T09:53:57;14.90;99.90
10175;DHT22;18221;38.704;0.152;2023-04-03T09:56:27;14.90;99.90
10175;DHT22;18221;38.704;0.152;2023-04-03T09:59:13;14.90;99.90
10175;DHT22;18221;38.704;0.152;2023-04-03T10:01:57;15.00;99.90
10175;DHT22;18221;38.704;0.152;2023-04-03T10:04:38;15.10;99.90
10175;DHT22;18221;38.704;0.152;2023-04-03T10:07:26;15.20;99.90
10175;DHT22;18221;38.704;0.152;2023-04-03T10:10:00;15.20;99.90
10175;DHT22;18221;38.704;0.152;2023-04-03T10:12:31;15.30;99.90
10175;DHT22;18221;38.704;0.152;2023-04-03T10:15:00;15.40;99.90
10175;DHT22;18221;38.704;0.152;2023-04-03T10:17:49;15.40;99.90
10175;DHT22;18221;38.704;0.152;2023-04-03T10:20:33;15.50;99.90
10175;DHT22;18221;38.704;0.152;2023-04-03T10:23:19;15.50;99.90
10175;DHT22;18221;38.704;0.152;2023-04-03T10:26:04;15.50;99.90
10175;DHT22;18221;38.704;0.152;2023-04-03T10:28:48;15.60;99.90
10175;DHT22;18221;38.704;0.152;2023-04-03T10:31:31;15.60;99.90
10175;DHT22;18221;38.704;0.152;2023-04-03T10:34:06;15.60;99.90
10175;DHT22;18221;38.704;0.152;2023-04-03T10:36:56;15.70;99.90
10175;DHT22;18221;38.704;0.152;2023-04-03T10:39:33;15.70;99.90
10175;DHT22;18221;38.704;0.152;2023-04-03T10:42:15;15.70;99.90
10175;DHT22;18221;38.704;0.152;2023-04-03T10:45:06;15.80;99.90
10175;DHT22;18221;38.704;0.152;2023-04-03T10:47:51;15.70;99.90
10175;DHT22;18221;38.704;0.152;2023-04-03T10:50:39;15.70;99.90
10175;DHT22;18221;38.704;0.152;2023-04-03T10:53:23;15.70;99.90
10175;DHT22;18221;38.704;0.152;2023-04-03T10:56:03;15.70;99.90
10175;DHT22;18221;38.704;0.152;2023-04-03T10:58:43;15.70;99.90
10175;DHT22;18221;38.704;0.152;2023-04-03T11:01:16;15.70;99.90
10175;DHT22;18221;38.704;0.152;2023-04-03T11:03:51;15.80;99.90
10175;DHT22;18221;38.704;0.152;2023-04-03T11:06:24;15.80;99.90
10175;DHT22;18221;38.704;0.152;2023-04-03T11:09:05;15.80;99.90
10175;DHT22;18221;38.704;0.152;2023-04-03T11:11:43;15.90;99.90
10175;DHT22;18221;38.704;0.152;2023-04-03T11:14:20;15.80;99.90
10175;DHT22;18221;38.704;0.152;2023-04-03T11:17:10;15.90;99.90
10175;DHT22;18221;38.704;0.152;2023-04-03T11:19:52;15.90;99.90
10175;DHT22;18221;38.704;0.152;2023-04-03T11:22:30;16.00;99.90
10175;DHT22;18221;38.704;0.152;2023-04-03T11:25:06;16.00;99.90
10175;DHT22;18221;38.704;0.152;2023-04-03T11:27:50;16.10;99.90
10175;DHT22;18221;38.704;0.152;2023-04-03T11:30:28;16.20;99.90
10175;DHT22;18221;38.704;0.152;2023-04-03T11:36:08;16.30;99.90
10175;DHT22;18221;38.704;0.152;2023-04-03T11:38:43;16.20;99.90
10175;DHT22;18221;38.704;0.152;2023-04-03T11:41:14;16.20;99.90
10175;DHT22;18221;38.704;0.152;2023-04-03T11:43:57;16.20;99.90
10175;DHT22;18221;38.704;0.152;2023-04-03T11:46:50;16.40;99.90
10175;DHT22;18221;38.704;0.152;2023-04-03T11:49:55;16.40;99.90
10175;DHT22;18221;38.704;0.152;2023-04-03T11:52:58;16.50;99.90
10175;DHT22;18221;38.704;0.152;2023-04-03T11:55:57;16.50;99.90
10175;DHT22;18221;38.704;0.152;2023-04-03T11:58:31;16.70;99.90
10175;DHT22;18221;38.704;0.152;2023-04-03T12:01:07;16.70;99.90
10175;DHT22;18221;38.704;0.152;2023-04-03T12:12:59;16.60;99.90
10175;DHT22;18221;38.704;0.152;2023-04-03T12:15:51;16.60;99.90
10175;DHT22;18221;38.704;0.152;2023-04-03T12:18:57;16.70;99.90
10175;DHT22;18221;38.704;0.152;2023-04-03T12:24:40;16.80;99.90
10175;DHT22;18221;38.704;0.152;2023-04-03T12:27:33;16.80;99.90
10175;DHT22;18221;38.704;0.152;2023-04-03T12:30:14;16.90;99.90
10175;DHT22;18221;38.704;0.152;2023-04-03T12:33:03;16.80;99.90
10175;DHT22;18221;38.704;0.152;2023-04-03T12:35:54;16.80;99.90
10175;DHT22;18221;38.704;0.152;2023-04-03T12:38:56;16.80;99.90
10175;DHT22;18221;38.704;0.152;2023-04-03T12:41:46;15.90;99.90
10175;DHT22;18221;38.704;0.152;2023-04-03T12:44:38;16.70;99.90
10175;DHT22;18221;38.704;0.152;2023-04-03T12:47:24;16.70;99.90
10175;DHT22;18221;38.704;0.152;2023-04-03T12:49:59;16.70;99.90
10175;DHT22;18221;38.704;0.152;2023-04-03T12:52:36;16.80;99.90
10175;DHT22;18221;38.704;0.152;2023-04-03T12:55:17;16.80;99.90
10175;DHT22;18221;38.704;0.152;2023-04-03T12:57:47;16.70;99.90
10175;DHT22;18221;38.704;0.152;2023-04-03T13:00:22;16.60;99.90
10175;DHT22;18221;38.704;0.152;2023-04-03T13:02:59;16.50;99.90
10175;DHT22;18221;38.704;0.152;2023-04-03T13:05:31;16.40;99.90
10175;DHT22;18221;38.704;0.152;2023-04-03T13:08:03;16.30;99.90
10175;DHT22;18221;38.704;0.152;2023-04-03T13:10:52;16.40;99.90
10175;DHT22;18221;38.704;0.152;2023-04-03T13:13:25;16.50;99.90
10175;DHT22;18221;38.704;0.152;2023-04-03T13:15:54;16.60;99.90
10175;DHT22;18221;38.704;0.152;2023-04-03T13:18:26;16.70;99.90
10175;DHT22;18221;38.704;0.152;2023-04-03T13:21:01;16.80;99.90
10175;DHT22;18221;38.704;0.152;2023-04-03T13:23:35;17.00;99.90
10175;DHT22;18221;38.704;0.152;2023-04-03T13:26:09;16.90;99.90
10175;DHT22;18221;38.704;0.152;2023-04-03T13:28:40;16.90;99.90
10175;DHT22;18221;38.704;0.152;2023-04-03T13:31:21;16.80;99.90
10175;DHT22;18221;38.704;0.152;2023-04-03T13:33:56;16.80;99.90
10175;DHT22;18221;38.704;0.152;2023-04-03T13:36:33;17.10;99.90
10175;DHT22;18221;38.704;0.152;2023-04-03T13:39:22;16.70;99.90
10175;DHT22;18221;38.704;0.152;2023-04-03T13:41:54;16.70;99.90
10175;DHT22;18221;38.704;0.152;2023-04-03T13:44:32;16.70;99.90
10175;DHT22;18221;38.704;0.152;2023-04-03T13:47:17;16.80;99.90
10175;DHT22;18221;38.704;0.152;2023-04-03T13:50:00;16.70;99.90
10175;DHT22;18221;38.704;0.152;2023-04-03T13:52:32;16.80;99.90
10175;DHT22;18221;38.704;0.152;2023-04-03T13:55:18;16.80;99.90
10175;DHT22;18221;38.704;0.152;2023-04-03T13:57:56;16.70;99.90
10175;DHT22;18221;38.704;0.152;2023-04-03T14:00:35;16.60;99.90
10175;DHT22;18221;38.704;0.152;2023-04-03T14:03:20;16.50;99.90
10175;DHT22;18221;38.704;0.152;2023-04-03T14:05:50;16.50;99.90
10175;DHT22;18221;38.704;0.152;2023-04-03T14:08:20;16.60;99.90
10175;DHT22;18221;38.704;0.152;2023-04-03T14:10:49;16.70;99.90
10175;DHT22;18221;38.704;0.152;2023-04-03T14:13:20;16.80;99.90
10175;DHT22;18221;38.704;0.152;2023-04-03T14:15:49;16.90;99.90
10175;DHT22;18221;38.704;0.152;2023-04-03T14:18:19;16.90;99.90
10175;DHT22;18221;38.704;0.152;2023-04-03T14:20:49;17.00;99.90
10175;DHT22;18221;38.704;0.152;2023-04-03T14:23:18;17.00;99.90
10175;DHT22;18221;38.704;0.152;2023-04-03T14:25:47;16.90;99.90
10175;DHT22;18221;38.704;0.152;2023-04-03T14:28:18;16.80;99.90
10175;DHT22;18221;38.704;0.152;2023-04-03T14:30:50;16.80;99.90
10175;DHT22;18221;38.704;0.152;2023-04-03T14:33:21;16.80;99.90
10175;DHT22;18221;38.704;0.152;2023-04-03T14:35:52;16.90;99.90
10175;DHT22;18221;38.704;0.152;2023-04-03T14:38:24;17.00;99.90
10175;DHT22;18221;38.704;0.152;2023-04-03T14:40:55;17.10;99.90
10175;DHT22;18221;38.704;0.152;2023-04-03T14:43:25;17.10;99.90
10175;DHT22;18221;38.704;0.152;2023-04-03T14:45:54;17.00;99.90
10175;DHT22;18221;38.704;0.152;2023-04-03T14:48:25;17.10;99.90
10175;DHT22;18221;38.704;0.152;2023-04-03T14:50:56;17.00;99.90
10175;DHT22;18221;38.704;0.152;2023-04-03T14:53:24;16.90;99.90
10175;DHT22;18221;38.704;0.152;2023-04-03T14:55:55;17.00;99.90
10175;DHT22;18221;38.704;0.152;2023-04-03T14:58:26;17.00;99.90
10175;DHT22;18221;38.704;0.152;2023-04-03T15:00:55;17.00;99.90
10175;DHT22;18221;38.704;0.152;2023-04-03T15:03:24;16.90;99.90
10175;DHT22;18221;38.704;0.152;2023-04-03T15:05:53;16.90;99.90
10175;DHT22;18221;38.704;0.152;2023-04-03T15:08:23;16.20;99.90
10175;DHT22;18221;38.704;0.152;2023-04-03T15:10:55;16.80;99.90
10175;DHT22;18221;38.704;0.152;2023-04-03T15:13:26;16.90;99.90
10175;DHT22;18221;38.704;0.152;2023-04-03T15:15:54;16.90;99.90
10175;DHT22;18221;38.704;0.152;2023-04-03T15:18:24;16.90;99.90
10175;DHT22;18221;38.704;0.152;2023-04-03T15:20:54;16.80;99.90
10175;DHT22;18221;38.704;0.152;2023-04-03T15:23:23;16.80;99.90
10175;DHT22;18221;38.704;0.152;2023-04-03T15:25:54;16.80;99.90
10175;DHT22;18221;38.704;0.152;2023-04-03T15:28:27;16.90;99.90
10175;DHT22;18221;38.704;0.152;2023-04-03T15:30:58;17.00;99.90
10175;DHT22;18221;38.704;0.152;2023-04-03T15:33:27;17.10;99.90
10175;DHT22;18221;38.704;0.152;2023-04-03T15:35:56;17.10;99.90
10175;DHT22;18221;38.704;0.152;2023-04-03T15:38:24;17.00;99.90
10175;DHT22;18221;38.704;0.152;2023-04-03T15:40:54;16.90;99.90
10175;DHT22;18221;38.704;0.152;2023-04-03T15:43:23;16.90;99.90
10175;DHT22;18221;38.704;0.152;2023-04-03T15:45:57;16.90;99.90
10175;DHT22;18221;38.704;0.152;2023-04-03T15:48:27;17.00;99.90
10175;DHT22;18221;38.704;0.152;2023-04-03T15:50:55;17.10;99.90
10175;DHT22;18221;38.704;0.152;2023-04-03T15:53:24;17.10;99.90
10175;DHT22;18221;38.704;0.152;2023-04-03T15:55:53;17.20;99.90
10175;DHT22;18221;38.704;0.152;2023-04-03T15:58:22;17.10;99.90
10175;DHT22;18221;38.704;0.152;2023-04-03T16:00:52;17.00;99.90
10175;DHT22;18221;38.704;0.152;2023-04-03T16:03:21;16.80;99.90
10175;DHT22;18221;38.704;0.152;2023-04-03T16:05:51;16.90;99.90
10175;DHT22;18221;38.704;0.152;2023-04-03T16:08:20;16.90;99.90
10175;DHT22;18221;38.704;0.152;2023-04-03T16:10:49;17.00;99.90
10175;DHT22;18221;38.704;0.152;2023-04-03T16:13:17;17.00;99.90
10175;DHT22;18221;38.704;0.152;2023-04-03T16:15:46;17.00;99.90
10175;DHT22;18221;38.704;0.152;2023-04-03T16:18:17;17.00;99.90
10175;DHT22;18221;38.704;0.152;2023-04-03T16:20:45;17.00;99.90
10175;DHT22;18221;38.704;0.152;2023-04-03T16:23:14;17.00;99.90
10175;DHT22;18221;38.704;0.152;2023-04-03T16:25:44;16.90;99.90